Time;durP1;ratioP1;P1;durP2;ratioP2;P2;SDS_P1;SDS_P2;PMS_P1;PMS_P2;Temp;Humidity;BMP_temperature;BMP_pressure;BME280_temperature;BME280_humidity;BME280_pressure;Samples;Min_cycle;Max_cycle;Signal;HPM_P1;HPM_P2
2021/03/01 00:01:16;;;;;;;5.47;2.55;;;4.40;99.90;;;;;;5075386;28;20504;-69
2021/03/01 00:03:44;;;;;;;3.95;1.95;;;4.40;99.90;;;;;;5093329;28;20047;-69
2021/03/01 00:06:10;;;;;;;4.95;2.05;;;4.30;99.90;;;;;;5093176;28;20032;-69
2021/03/01 00:08:54;;;;;;;4.25;1.73;;;4.30;99.90;;;;;;5093300;28;20093;-69
2021/03/01 00:15:48;;;;;;;3.40;1.77;;;4.30;99.90;;;;;;5093101;28;20061;-70
2021/03/01 00:18:19;;;;;;;4.10;1.58;;;4.20;99.90;;;;;;5088363;28;20052;-70
2021/03/01 00:21:20;;;;;;;5.78;2.40;;;4.30;99.90;;;;;;5093456;28;20071;-69
2021/03/01 00:23:55;;;;;;;4.45;1.85;;;4.30;99.90;;;;;;5075559;28;20044;-69
2021/03/01 00:30:04;;;;;;;3.30;1.38;;;4.30;99.90;;;;;;5092787;28;20494;-69
2021/03/01 00:33:19;;;;;;;3.67;1.85;;;4.30;99.90;;;;;;5086625;28;20044;-69
2021/03/01 00:35:48;;;;;;;4.32;2.20;;;4.20;99.90;;;;;;5075340;28;20058;-69
2021/03/01 00:38:20;;;;;;;4.13;2.40;;;4.20;99.90;;;;;;5087332;28;20445;-69
2021/03/01 00:40:53;;;;;;;3.08;1.60;;;4.10;99.90;;;;;;5093176;28;20116;-69
2021/03/01 00:43:28;;;;;;;3.72;1.95;;;4.10;99.90;;;;;;5091197;28;20161;-69
2021/03/01 00:45:57;;;;;;;3.72;1.75;;;4.10;99.90;;;;;;5075285;28;20121;-69
2021/03/01 00:48:33;;;;;;;2.92;1.55;;;4.10;99.90;;;;;;5092879;28;20047;-69
2021/03/01 00:51:05;;;;;;;3.83;1.80;;;4.10;99.90;;;;;;5091852;28;20040;-69
2021/03/01 00:58:21;;;;;;;2.45;1.48;;;4.10;99.90;;;;;;5056512;28;20091;-69
2021/03/01 01:01:12;;;;;;;3.40;1.65;;;4.10;99.90;;;;;;5056609;28;20087;-69
2021/03/01 01:03:49;;;;;;;3.35;1.40;;;4.10;99.90;;;;;;5049106;28;20068;-69
2021/03/01 01:06:27;;;;;;;3.38;1.40;;;4.00;99.90;;;;;;5056133;28;20037;-69
2021/03/01 01:15:50;;;;;;;2.65;1.38;;;3.90;99.90;;;;;;5049438;28;20098;-68
2021/03/01 01:18:22;;;;;;;3.63;1.48;;;3.90;99.90;;;;;;5038084;28;20045;-69
2021/03/01 01:20:51;;;;;;;3.17;1.55;;;3.90;99.90;;;;;;5049728;28;20072;-69
2021/03/01 01:23:20;;;;;;;2.28;1.17;;;3.90;99.90;;;;;;5051892;28;20049;-69
2021/03/01 01:25:49;;;;;;;3.55;1.60;;;3.90;99.90;;;;;;5056172;28;20128;-69
2021/03/01 01:28:19;;;;;;;2.72;1.40;;;4.00;99.90;;;;;;5054623;28;20049;-69
2021/03/01 01:30:47;;;;;;;2.63;1.30;;;4.00;99.90;;;;;;5056156;28;20132;-69
2021/03/01 01:33:31;;;;;;;2.28;1.05;;;3.90;99.90;;;;;;5054981;28;20103;-69
2021/03/01 01:35:57;;;;;;;2.70;1.17;;;3.90;99.90;;;;;;5055738;28;20120;-69
2021/03/01 01:38:24;;;;;;;2.72;1.40;;;3.90;99.90;;;;;;5055701;28;20056;-69
2021/03/01 01:41:21;;;;;;;3.35;1.30;;;3.90;99.90;;;;;;5055784;28;20540;-69
2021/03/01 01:43:54;;;;;;;2.72;1.45;;;3.90;99.90;;;;;;5055571;28;20118;-69
2021/03/01 01:46:32;;;;;;;2.55;1.38;;;3.90;99.90;;;;;;5054287;28;20040;-69
2021/03/01 01:56:34;;;;;;;4.30;1.92;;;3.80;99.90;;;;;;5095328;28;20051;-69
2021/03/01 01:59:04;;;;;;;2.92;1.45;;;3.80;99.90;;;;;;5077836;28;20044;-69
2021/03/01 02:08:53;;;;;;;3.35;1.80;;;3.80;99.90;;;;;;5093709;28;20044;-69
2021/03/01 02:18:26;;;;;;;4.25;2.00;;;3.90;99.90;;;;;;5091809;28;20043;-69
2021/03/01 02:20:57;;;;;;;3.42;1.73;;;3.90;99.90;;;;;;5093891;28;20044;-69
2021/03/01 02:23:25;;;;;;;4.63;2.38;;;3.90;99.90;;;;;;5095157;28;20044;-69
2021/03/01 02:26:11;;;;;;;5.35;2.47;;;3.90;99.90;;;;;;5077108;28;20088;-69
2021/03/01 02:28:58;;;;;;;;;;;3.90;99.90;;;;;;5077215;28;20055;-69
2021/03/01 02:31:26;;;;;;;4.15;1.80;;;3.90;99.90;;;;;;5090372;28;19926;-69
2021/03/01 02:38:20;;;;;;;5.38;2.28;;;3.90;99.90;;;;;;5094779;28;20123;-69
2021/03/01 02:40:49;;;;;;;4.93;2.20;;;3.90;99.90;;;;;;5090584;28;20072;-69
2021/03/01 02:50:52;;;;;;;4.40;2.28;;;3.90;99.90;;;;;;5088261;28;20081;-69
2021/03/01 02:53:52;;;;;;;3.85;2.05;;;4.00;99.90;;;;;;5094764;28;20472;-69
2021/03/01 03:00:47;;;;;;;5.63;2.25;;;3.90;99.90;;;;;;5094286;28;20057;-69
2021/03/01 03:03:20;;;;;;;6.50;2.95;;;3.90;99.90;;;;;;5094579;28;20067;-69
2021/03/01 03:05:52;;;;;;;6.63;2.90;;;3.90;99.90;;;;;;5094286;28;20120;-70
2021/03/01 03:08:21;;;;;;;5.43;2.75;;;3.90;99.90;;;;;;5076428;28;20040;-69
2021/03/01 03:10:51;;;;;;;6.53;3.47;;;3.80;99.90;;;;;;5094398;28;20399;-69
2021/03/01 03:13:23;;;;;;;5.47;2.95;;;3.80;99.90;;;;;;5094356;28;20036;-70
2021/03/01 03:15:54;;;;;;;5.35;2.60;;;3.80;99.90;;;;;;5090213;28;20055;-69
2021/03/01 03:18:31;;;;;;;6.53;3.15;;;3.80;99.90;;;;;;5092374;28;20467;-69
2021/03/01 03:20:58;;;;;;;5.97;2.70;;;3.80;99.90;;;;;;5074967;28;20075;-70
2021/03/01 03:23:26;;;;;;;6.63;2.97;;;3.70;99.90;;;;;;5094487;28;20131;-69
2021/03/01 03:25:55;;;;;;;5.28;2.80;;;3.70;99.90;;;;;;5093938;28;20051;-69
2021/03/01 03:28:24;;;;;;;5.60;2.63;;;3.70;99.90;;;;;;5093789;28;20051;-69
2021/03/01 03:30:53;;;;;;;5.72;2.60;;;3.70;99.90;;;;;;5094081;28;20078;-69
2021/03/01 03:33:21;;;;;;;5.57;2.40;;;3.60;99.90;;;;;;5094034;28;20048;-69
2021/03/01 03:35:48;;;;;;;5.45;2.55;;;3.50;99.90;;;;;;5089273;28;20040;-69
2021/03/01 03:38:34;;;;;;;4.57;2.42;;;3.50;99.90;;;;;;5073886;28;20048;-69
2021/03/01 03:41:14;;;;;;;5.32;2.55;;;3.50;99.90;;;;;;5074983;28;20040;-69
2021/03/01 03:43:51;;;;;;;6.03;2.83;;;3.50;99.90;;;;;;5093625;28;20071;-69
2021/03/01 03:50:51;;;;;;;4.20;1.70;;;3.40;99.90;;;;;;5093435;28;20042;-69
2021/03/01 03:53:44;;;;;;;4.47;1.90;;;3.50;99.90;;;;;;5073257;28;20500;-69
2021/03/01 03:56:26;;;;;;;4.00;2.03;;;3.50;99.90;;;;;;5089472;28;20432;-69
2021/03/01 03:58:58;;;;;;;4.15;2.00;;;3.60;99.90;;;;;;5073212;28;20476;-69
2021/03/01 04:01:32;;;;;;;5.22;2.05;;;3.60;99.90;;;;;;5073093;28;20491;-70
2021/03/01 04:04:06;;;;;;;5.10;2.35;;;3.60;99.90;;;;;;5078557;28;20043;-70
2021/03/01 04:10:23;;;;;;;3.42;1.83;;;3.60;99.90;;;;;;5093582;28;20047;-70
2021/03/01 04:13:22;;;;;;;4.45;1.98;;;3.70;99.90;;;;;;5087963;28;20483;-69
2021/03/01 04:15:54;;;;;;;4.13;2.10;;;3.60;99.90;;;;;;5094032;28;20047;-69
2021/03/01 04:18:51;;;;;;;4.43;2.40;;;3.70;99.90;;;;;;5091081;28;20055;-69
2021/03/01 04:21:21;;;;;;;4.57;2.08;;;3.60;99.90;;;;;;5093236;28;20437;-69
2021/03/01 04:28:18;;;;;;;4.78;2.22;;;3.70;99.90;;;;;;5082646;28;20407;-69
2021/03/01 04:30:51;;;;;;;4.28;1.83;;;3.70;99.90;;;;;;5077433;28;20064;-69
2021/03/01 04:33:22;;;;;;;5.72;2.53;;;3.70;99.90;;;;;;5094755;28;20048;-69
2021/03/01 04:35:53;;;;;;;6.70;2.85;;;3.70;99.90;;;;;;5077049;28;20041;-69
2021/03/01 04:38:20;;;;;;;7.97;3.42;;;3.80;99.90;;;;;;5095759;28;20153;-69
2021/03/01 04:40:53;;;;;;;6.00;3.00;;;3.70;99.90;;;;;;5097282;28;20044;-70
2021/03/01 04:43:23;;;;;;;6.90;3.40;;;3.70;99.90;;;;;;5076923;28;20090;-69
2021/03/01 04:45:53;;;;;;;5.75;2.67;;;3.60;99.90;;;;;;5079756;28;20047;-69
2021/03/01 04:48:47;;;;;;;4.95;2.25;;;3.60;99.90;;;;;;5096658;28;20089;-69
2021/03/01 04:51:14;;;;;;;5.88;2.85;;;3.60;99.90;;;;;;5095796;28;20444;-69
2021/03/01 04:53:46;;;;;;;5.05;2.72;;;3.60;99.90;;;;;;5096879;28;20123;-69
2021/03/01 04:56:22;;;;;;;4.80;2.35;;;3.50;99.90;;;;;;5096673;28;20050;-69
2021/03/01 04:59:07;;;;;;;4.90;2.28;;;3.50;99.90;;;;;;5096747;28;20476;-70
2021/03/01 05:01:43;;;;;;;3.83;2.00;;;3.40;99.90;;;;;;5071529;28;20055;-69
2021/03/01 05:08:19;;;;;;;4.22;2.00;;;3.40;99.90;;;;;;5096410;28;20097;-70
2021/03/01 05:10:58;;;;;;;4.25;2.15;;;3.30;99.90;;;;;;5096595;28;20048;-70
2021/03/01 05:13:25;;;;;;;3.95;2.00;;;3.40;99.90;;;;;;5076848;28;20055;-70
2021/03/01 05:15:59;;;;;;;3.08;1.83;;;3.40;99.90;;;;;;5096258;28;20040;-69
2021/03/01 05:18:29;;;;;;;5.82;2.25;;;3.40;99.90;;;;;;5091980;28;20048;-69
2021/03/01 05:21:22;;;;;;;3.50;2.00;;;3.40;99.90;;;;;;5078299;28;20430;-69
2021/03/01 05:24:09;;;;;;;3.38;1.70;;;3.40;99.90;;;;;;5095808;28;20071;-70
2021/03/01 05:30:47;;;;;;;4.43;1.90;;;3.50;99.90;;;;;;5095639;28;20035;-69
2021/03/01 05:33:21;;;;;;;3.15;1.52;;;3.60;99.90;;;;;;5095613;28;20038;-69
2021/03/01 05:36:24;;;;;;;4.63;2.30;;;3.60;99.90;;;;;;5078275;28;20044;-69
2021/03/01 05:43:18;;;;;;;3.55;1.85;;;3.70;99.90;;;;;;5089907;28;20085;-70
2021/03/01 05:46:22;;;;;;;5.32;2.45;;;3.80;99.90;;;;;;5096224;28;20052;-70
2021/03/01 05:52:39;;;;;;;5.35;2.53;;;3.80;99.90;;;;;;5085518;28;20169;-69
2021/03/01 05:55:48;;;;;;;5.15;2.20;;;3.80;99.90;;;;;;5095921;28;20097;-70
2021/03/01 05:58:44;;;;;;;8.48;3.03;;;3.80;99.90;;;;;;5095701;28;20036;-69
2021/03/01 06:01:30;;;;;;;5.82;3.00;;;3.80;99.90;;;;;;5091700;28;20044;-69
2021/03/01 06:03:57;;;;;;;7.30;2.42;;;3.70;99.90;;;;;;5084404;28;20066;-69
2021/03/01 06:06:27;;;;;;;5.97;2.47;;;3.70;99.90;;;;;;5095378;28;20040;-69
2021/03/01 06:16:28;;;;;;;5.93;2.30;;;3.90;99.90;;;;;;5095061;28;20027;-69
2021/03/01 06:18:54;;;;;;;7.22;2.75;;;3.90;99.90;;;;;;5095014;28;20456;-69
2021/03/01 06:21:35;;;;;;;8.07;2.92;;;4.00;99.90;;;;;;5095327;28;20071;-69
2021/03/01 06:24:13;;;;;;;5.78;2.75;;;4.00;99.90;;;;;;5074108;28;20484;-69
2021/03/01 06:27:00;;;;;;;7.82;2.97;;;4.10;99.90;;;;;;5089630;28;20078;-69
2021/03/01 06:30:03;;;;;;;7.57;3.30;;;4.10;99.90;;;;;;5060717;28;20044;-71
2021/03/01 06:36:49;;;;;;;6.57;2.55;;;4.20;99.90;;;;;;5094540;28;20093;-70
2021/03/01 06:39:25;;;;;;;9.65;3.45;;;4.30;99.90;;;;;;5092468;28;20036;-70
2021/03/01 06:45:37;;;;;;;5.13;2.33;;;4.30;99.90;;;;;;5094722;28;20077;-70
2021/03/01 06:48:28;;;;;;;8.35;3.53;;;4.40;99.90;;;;;;5094452;28;20051;-70
2021/03/01 06:54:23;;;;;;;8.38;2.85;;;4.50;99.90;;;;;;5092176;28;20059;-69
2021/03/01 06:56:59;;;;;;;6.68;2.63;;;4.50;99.90;;;;;;5089507;28;20044;-69
2021/03/01 06:59:27;;;;;;;5.97;2.45;;;4.50;99.90;;;;;;5094327;28;20040;-70
2021/03/01 07:01:58;;;;;;;7.40;2.85;;;4.50;99.90;;;;;;5094176;28;20123;-69
2021/03/01 07:04:34;;;;;;;7.85;2.95;;;4.60;99.90;;;;;;5094036;28;20044;-69
2021/03/01 07:07:37;;;;;;;6.97;2.72;;;4.60;99.90;;;;;;5094257;28;20113;-69
2021/03/01 07:10:35;;;;;;;9.18;3.10;;;4.70;99.90;;;;;;5094393;28;20056;-68
2021/03/01 07:13:27;;;;;;;9.27;3.05;;;4.70;99.90;;;;;;5091895;28;20036;-69
2021/03/01 07:16:03;;;;;;;10.38;3.97;;;4.80;99.90;;;;;;5093975;28;20126;-69
2021/03/01 07:19:22;;;;;;;10.02;3.50;;;4.80;99.90;;;;;;5074101;28;20052;-69
2021/03/01 07:21:59;;;;;;;13.27;3.90;;;4.80;99.90;;;;;;5094004;28;20071;-70
2021/03/01 07:24:29;;;;;;;13.82;4.38;;;4.80;99.90;;;;;;5093907;28;20048;-70
2021/03/01 07:27:28;;;;;;;16.80;4.65;;;4.80;99.90;;;;;;5093719;28;20044;-69
2021/03/01 07:30:41;;;;;;;14.05;4.72;;;4.80;99.90;;;;;;5075905;28;20105;-68
2021/03/01 07:33:15;;;;;;;17.05;5.20;;;4.90;99.90;;;;;;5092718;28;20400;-68
2021/03/01 07:39:40;;;;;;;10.02;3.40;;;4.90;99.90;;;;;;5082701;28;20055;-68
2021/03/01 07:42:19;;;;;;;13.50;4.88;;;4.90;99.90;;;;;;5089625;28;20499;-68
2021/03/01 07:44:54;;;;;;;13.18;4.65;;;4.90;99.90;;;;;;5093850;28;20044;-71
2021/03/01 07:47:27;;;;;;;11.77;4.32;;;4.90;99.90;;;;;;5087307;28;20040;-69
2021/03/01 07:50:30;;;;;;;8.80;2.75;;;4.90;99.90;;;;;;5093550;28;20040;-67
2021/03/01 07:52:56;;;;;;;7.40;3.15;;;4.90;99.90;;;;;;5075093;28;20062;-66
2021/03/01 07:55:31;;;;;;;11.60;3.95;;;5.00;99.90;;;;;;5093267;28;20044;-66
2021/03/01 07:58:04;;;;;;;13.13;4.20;;;5.00;99.90;;;;;;5093447;28;20381;-65
2021/03/01 08:00:46;;;;;;;16.42;5.05;;;5.00;99.90;;;;;;5086465;28;20048;-66
2021/03/01 08:03:30;;;;;;;16.42;4.93;;;5.00;99.90;;;;;;5088474;28;20119;-67
2021/03/01 08:09:59;;;;;;;14.02;4.35;;;5.10;99.90;;;;;;5093270;28;19919;-66
2021/03/01 08:12:34;;;;;;;21.15;5.80;;;5.20;99.90;;;;;;5093280;28;20047;-69
2021/03/01 08:15:28;;;;;;;19.60;6.03;;;5.20;99.90;;;;;;5093103;28;20423;-67
2021/03/01 08:22:18;;;;;;;16.63;4.85;;;5.30;99.90;;;;;;5092818;28;20031;-66
2021/03/01 08:24:53;;;;;;;22.35;8.13;;;5.30;99.90;;;;;;5068489;28;20056;-66
2021/03/01 08:27:38;;;;;;;21.85;7.55;;;5.30;99.90;;;;;;5090053;28;20115;-65
2021/03/01 08:34:15;;;;;;;18.65;5.88;;;5.40;99.90;;;;;;5092849;28;20031;-67
2021/03/01 08:37:17;;;;;;;15.00;4.30;;;5.40;99.90;;;;;;5088175;28;20040;-65
2021/03/01 08:40:03;;;;;;;13.68;4.05;;;5.40;99.90;;;;;;5072905;28;20549;-66
2021/03/01 08:42:48;;;;;;;13.38;3.92;;;5.40;99.90;;;;;;5074580;28;20044;-64
2021/03/01 08:45:30;;;;;;;12.38;2.92;;;5.40;99.90;;;;;;5093000;28;20050;-64
2021/03/01 08:48:25;;;;;;;8.80;3.08;;;5.50;99.90;;;;;;5090094;28;20472;-65
2021/03/01 08:55:04;;;;;;;5.57;2.08;;;5.50;99.90;;;;;;5092092;28;20486;-66
2021/03/01 08:57:58;;;;;;;7.97;2.65;;;5.60;99.90;;;;;;5074299;28;20125;-66
2021/03/01 09:04:48;;;;;;;5.20;1.92;;;5.60;99.90;;;;;;5092801;28;20537;-66
2021/03/01 09:07:16;;;;;;;4.28;1.88;;;5.60;99.90;;;;;;5090171;28;20079;-66
2021/03/01 09:09:51;;;;;;;6.95;2.60;;;5.60;99.90;;;;;;5070387;28;20067;-66
2021/03/01 09:12:24;;;;;;;6.32;1.88;;;5.60;99.90;;;;;;5071431;28;20037;-65
2021/03/01 09:14:55;;;;;;;4.70;1.77;;;5.70;99.90;;;;;;5075309;28;20159;-65
2021/03/01 09:17:24;;;;;;;5.25;1.95;;;5.70;99.90;;;;;;5096536;28;20044;-68
2021/03/01 09:20:01;;;;;;;6.63;2.90;;;5.60;99.90;;;;;;5062366;28;20072;-68
2021/03/01 09:22:44;;;;;;;4.35;1.98;;;5.60;99.90;;;;;;5093251;28;20064;-72
2021/03/01 09:25:40;;;;;;;4.43;1.77;;;5.50;99.90;;;;;;5096050;28;20043;-68
2021/03/01 09:28:12;;;;;;;4.47;1.95;;;5.70;99.90;;;;;;5080911;28;20046;-67
2021/03/01 09:34:55;;;;;;;4.53;1.77;;;5.70;99.90;;;;;;5095892;28;20035;-68
2021/03/01 09:37:33;;;;;;;6.35;2.15;;;5.70;99.90;;;;;;5091872;28;20123;-66
2021/03/01 09:40:18;;;;;;;6.85;2.05;;;5.80;99.90;;;;;;5078157;28;20061;-67
2021/03/01 09:43:04;;;;;;;4.93;2.05;;;5.80;99.90;;;;;;5077860;28;20055;-67
2021/03/01 09:45:36;;;;;;;6.32;2.55;;;5.90;99.90;;;;;;5095666;28;20062;-66
2021/03/01 09:48:09;;;;;;;5.68;2.47;;;5.90;99.90;;;;;;5096196;28;20043;-65
2021/03/01 09:50:44;;;;;;;5.25;2.40;;;5.90;99.90;;;;;;5086879;28;20488;-67
2021/03/01 09:53:20;;;;;;;4.82;1.88;;;6.00;99.90;;;;;;5092498;28;20057;-67
2021/03/01 10:07:33;;;;;;;3.92;1.77;;;6.10;99.90;;;;;;5095158;28;20039;-67
2021/03/01 10:10:14;;;;;;;4.32;1.75;;;6.20;99.90;;;;;;5092244;28;20090;-67
2021/03/01 10:13:08;;;;;;;3.55;1.65;;;6.10;99.90;;;;;;5095488;28;20096;-67
2021/03/01 10:15:58;;;;;;;3.60;1.30;;;6.10;99.90;;;;;;5095407;28;20052;-67
2021/03/01 10:18:28;;;;;;;3.13;1.63;;;6.20;99.90;;;;;;5080862;28;20473;-68
2021/03/01 10:25:11;;;;;;;3.08;1.73;;;6.30;99.90;;;;;;5094760;28;20055;-68
2021/03/01 10:27:40;;;;;;;3.22;1.50;;;6.30;99.90;;;;;;5057041;28;20091;-68
2021/03/01 10:30:12;;;;;;;5.68;2.20;;;6.40;99.90;;;;;;5089902;28;20040;-68
2021/03/01 10:32:45;;;;;;;3.28;1.40;;;6.40;99.90;;;;;;5075067;28;20064;-68
2021/03/01 10:35:18;;;;;;;7.00;1.58;;;6.40;99.90;;;;;;5060220;28;20119;-67
2021/03/01 10:38:12;;;;;;;3.25;1.13;;;6.40;99.90;;;;;;5094901;28;20245;-66
2021/03/01 10:47:38;;;;;;;4.18;1.38;;;6.50;99.90;;;;;;5088629;28;20050;-68
2021/03/01 10:53:45;;;;;;;4.63;1.48;;;6.50;99.90;;;;;;5070711;28;20055;-67
2021/03/01 10:56:13;;;;;;;3.53;1.33;;;6.60;99.90;;;;;;5082654;28;20036;-67
2021/03/01 11:02:41;;;;;;;2.95;1.10;;;6.60;99.90;;;;;;5094262;28;20097;-66
2021/03/01 11:05:12;;;;;;;2.05;1.08;;;6.60;99.90;;;;;;5094743;28;20047;-67
2021/03/01 11:07:41;;;;;;;2.97;1.13;;;6.60;99.90;;;;;;5094180;28;20048;-65
2021/03/01 11:10:13;;;;;;;3.10;1.58;;;6.70;99.90;;;;;;5094507;28;20044;-66
2021/03/01 11:12:42;;;;;;;6.80;3.10;;;6.70;99.90;;;;;;5094185;28;20119;-66
2021/03/01 11:15:18;;;;;;;4.05;1.65;;;6.70;99.90;;;;;;5092078;28;20047;-66
2021/03/01 11:17:59;;;;;;;5.03;1.60;;;6.80;99.90;;;;;;5089215;28;20066;-69
2021/03/01 11:20:42;;;;;;;4.15;1.52;;;6.80;99.90;;;;;;5094507;28;20494;-70
2021/03/01 11:27:32;;;;;;;2.58;1.27;;;6.90;99.90;;;;;;5093596;28;20081;-71
2021/03/01 11:30:26;;;;;;;2.00;1.08;;;6.90;99.90;;;;;;5090645;28;20092;-73
2021/03/01 11:33:47;;;;;;;2.53;1.33;;;6.90;99.90;;;;;;5070111;28;20044;-78
2021/03/01 11:36:17;;;;;;;2.00;1.10;;;6.90;99.90;;;;;;5081764;28;20115;-66
2021/03/01 11:42:49;;;;;;;3.25;1.42;;;6.90;99.90;;;;;;5093506;28;20073;-66
2021/03/01 11:45:18;;;;;;;3.55;1.80;;;6.90;99.90;;;;;;5093589;28;20121;-66
2021/03/01 11:55:16;;;;;;;2.78;1.27;;;6.80;99.90;;;;;;5088589;28;20059;-66
2021/03/01 11:57:43;;;;;;;5.55;2.20;;;6.80;99.90;;;;;;5093191;28;20044;-66
2021/03/01 12:00:22;;;;;;;4.85;2.17;;;6.80;99.90;;;;;;5093049;28;20082;-66
2021/03/01 12:03:22;;;;;;;3.60;1.83;;;6.80;99.90;;;;;;5093315;28;20047;-66
2021/03/01 12:05:50;;;;;;;4.10;1.73;;;6.80;99.90;;;;;;5059683;28;20399;-65
2021/03/01 12:08:18;;;;;;;4.10;1.90;;;6.90;99.90;;;;;;5093195;28;20044;-66
2021/03/01 12:11:03;;;;;;;3.92;2.00;;;6.80;99.90;;;;;;5093396;28;20040;-66
2021/03/01 12:13:37;;;;;;;4.18;1.55;;;6.90;99.90;;;;;;5090340;28;20036;-66
2021/03/01 12:16:03;;;;;;;6.18;1.98;;;6.90;99.90;;;;;;5093009;28;20046;-67
2021/03/01 12:18:30;;;;;;;4.55;2.08;;;7.00;99.90;;;;;;5093060;28;20167;-68
2021/03/01 12:21:22;;;;;;;4.18;1.90;;;7.00;99.90;;;;;;5093154;28;20052;-68
2021/03/01 12:28:15;;;;;;;4.85;2.67;;;7.10;99.90;;;;;;5087022;28;20117;-67
2021/03/01 12:30:47;;;;;;;5.90;1.77;;;7.10;99.90;;;;;;5093093;28;20120;-67
2021/03/01 12:33:20;;;;;;;7.43;2.38;;;7.10;99.90;;;;;;5073047;28;20119;-66
2021/03/01 12:35:46;;;;;;;5.53;1.98;;;7.20;99.90;;;;;;5088043;28;20052;-67
2021/03/01 12:38:18;;;;;;;5.53;2.20;;;7.20;99.90;;;;;;5086594;28;20147;-68
2021/03/01 12:40:46;;;;;;;3.50;2.00;;;7.10;99.90;;;;;;5093064;28;20040;-68
2021/03/01 12:43:41;;;;;;;4.65;1.92;;;7.30;99.90;;;;;;5087361;28;20036;-68
2021/03/01 12:46:19;;;;;;;4.57;1.92;;;7.20;99.90;;;;;;5093414;28;20063;-67
2021/03/01 12:49:00;;;;;;;4.00;1.92;;;7.30;99.90;;;;;;5092971;28;20055;-67
2021/03/01 12:51:28;;;;;;;5.22;2.00;;;7.30;99.90;;;;;;5095203;28;20059;-68
2021/03/01 12:53:57;;;;;;;3.90;2.10;;;7.30;99.90;;;;;;5044335;28;20081;-68
2021/03/01 13:00:49;;;;;;;5.95;2.97;;;7.40;99.90;;;;;;5076164;28;20098;-68
2021/03/01 13:03:16;;;;;;;5.25;2.13;;;7.40;99.90;;;;;;5076297;28;20507;-67
2021/03/01 13:05:47;;;;;;;7.50;2.50;;;7.40;99.90;;;;;;5076657;28;20060;-70
2021/03/01 13:08:16;;;;;;;10.43;2.97;;;7.40;99.90;;;;;;5075056;28;20115;-69
2021/03/01 13:10:48;;;;;;;4.95;2.60;;;7.40;99.90;;;;;;5056356;28;20518;-68
2021/03/01 13:13:20;;;;;;;7.32;2.65;;;7.40;99.90;;;;;;5075788;28;20049;-68
2021/03/01 13:15:58;;;;;;;8.48;3.13;;;7.40;99.90;;;;;;5076099;28;20548;-72
2021/03/01 13:18:31;;;;;;;7.15;2.95;;;7.40;99.90;;;;;;5075953;28;20044;-70
2021/03/01 13:28:21;;;;;;;8.27;3.17;;;7.40;99.90;;;;;;5075828;28;20525;-67
2021/03/01 13:30:53;;;;;;;7.75;3.50;;;7.40;99.90;;;;;;5075841;28;20377;-67
2021/03/01 13:33:24;;;;;;;8.38;4.10;;;7.40;99.90;;;;;;5056876;28;20044;-67
2021/03/01 13:35:51;;;;;;;7.85;3.25;;;7.40;99.90;;;;;;5076078;28;20048;-67
2021/03/01 13:38:23;;;;;;;7.90;3.30;;;7.50;99.90;;;;;;5071628;28;20048;-67
2021/03/01 13:40:51;;;;;;;7.10;2.83;;;7.50;99.90;;;;;;5075994;28;20123;-67
2021/03/01 13:43:48;;;;;;;9.82;3.85;;;7.50;99.90;;;;;;5071805;28;20125;-67
2021/03/01 13:46:32;;;;;;;10.50;3.90;;;7.50;99.90;;;;;;5075902;28;20480;-70
2021/03/01 13:49:04;;;;;;;11.57;4.55;;;7.50;99.90;;;;;;5060771;28;20123;-71
2021/03/01 13:51:31;;;;;;;9.88;3.80;;;7.40;99.90;;;;;;5072821;28;20052;-67
2021/03/01 13:53:57;;;;;;;8.20;3.70;;;7.40;99.90;;;;;;5078723;28;20064;-68
2021/03/01 14:01:06;;;;;;;4.55;2.70;;;7.50;99.90;;;;;;5095305;28;20093;-67
2021/03/01 14:07:56;;;;;;;5.32;2.28;;;7.50;99.90;;;;;;5082976;28;20046;-69
2021/03/01 14:10:46;;;;;;;3.90;2.00;;;7.50;99.90;;;;;;5066510;28;20040;-67
2021/03/01 14:13:45;;;;;;;5.50;2.40;;;7.50;99.90;;;;;;5089144;28;20514;-67
2021/03/01 14:16:26;;;;;;;4.95;2.75;;;7.40;99.90;;;;;;5095170;28;20122;-67
2021/03/01 14:19:01;;;;;;;6.13;2.97;;;7.40;99.90;;;;;;5095103;28;20059;-69
2021/03/01 14:21:33;;;;;;;6.60;3.20;;;7.50;99.90;;;;;;5095110;28;20119;-67
2021/03/01 14:24:24;;;;;;;10.55;5.00;;;7.50;99.90;;;;;;5080821;28;20040;-67
2021/03/01 14:26:50;;;;;;;8.45;4.63;;;7.50;99.90;;;;;;5083880;28;20071;-67
2021/03/01 14:33:17;;;;;;;10.57;4.30;;;7.50;99.90;;;;;;5094699;28;20502;-68
2021/03/01 14:35:52;;;;;;;9.20;4.13;;;7.40;99.90;;;;;;5094955;28;20040;-70
2021/03/01 14:38:25;;;;;;;6.78;3.22;;;7.40;99.90;;;;;;5072489;28;20047;-68
2021/03/01 14:40:57;;;;;;;5.72;3.20;;;7.40;99.90;;;;;;5095038;28;20040;-70
2021/03/01 14:43:23;;;;;;;4.70;2.65;;;7.40;99.90;;;;;;5075300;28;20040;-68
2021/03/01 14:46:00;;;;;;;10.18;3.65;;;7.40;99.90;;;;;;5095188;28;20066;-69
2021/03/01 14:48:35;;;;;;;6.22;3.40;;;7.30;99.90;;;;;;5095044;28;20040;-70
2021/03/01 14:51:06;;;;;;;5.50;3.03;;;7.20;99.90;;;;;;5095107;28;20044;-71
2021/03/01 14:53:34;;;;;;;5.43;2.95;;;7.30;99.90;;;;;;5075927;28;20041;-70
2021/03/01 14:56:07;;;;;;;5.60;3.42;;;7.30;99.90;;;;;;5094238;28;20109;-68
2021/03/01 14:58:39;;;;;;;7.68;3.08;;;7.30;99.90;;;;;;5087526;28;20126;-67
2021/03/01 15:01:34;;;;;;;4.43;2.20;;;7.30;99.90;;;;;;5094149;28;20048;-67
2021/03/01 15:04:14;;;;;;;6.50;2.70;;;7.20;99.90;;;;;;5091598;28;20064;-69
2021/03/01 15:06:47;;;;;;;7.93;2.58;;;7.40;99.90;;;;;;5088844;28;20071;-71
2021/03/01 15:09:21;;;;;;;7.60;2.85;;;7.40;99.90;;;;;;5076303;28;20070;-71
2021/03/01 15:15:28;;;;;;;4.80;2.42;;;7.20;99.90;;;;;;5093782;28;20402;-69
2021/03/01 15:17:57;;;;;;;4.85;2.00;;;7.20;99.90;;;;;;5076022;28;20054;-69
2021/03/01 15:21:04;;;;;;;5.65;2.42;;;7.30;99.90;;;;;;5094020;28;20161;-68
2021/03/01 15:23:35;;;;;;;4.60;2.33;;;7.20;99.90;;;;;;5093924;28;20036;-69
2021/03/01 15:26:10;;;;;;;3.30;2.00;;;7.20;99.90;;;;;;5093833;28;20064;-70
2021/03/01 15:28:36;;;;;;;4.20;2.15;;;7.20;99.90;;;;;;5083109;28;20044;-69
2021/03/01 15:31:08;;;;;;;7.43;2.70;;;7.20;99.90;;;;;;5091806;28;20044;-70
2021/03/01 15:33:43;;;;;;;3.47;1.92;;;7.10;99.90;;;;;;5073865;28;20048;-71
2021/03/01 15:43:38;;;;;;;7.15;2.90;;;7.00;99.90;;;;;;5073703;28;20066;-70
2021/03/01 15:46:12;;;;;;;5.57;2.70;;;6.90;99.90;;;;;;5072619;28;20190;-71
2021/03/01 15:48:44;;;;;;;3.88;2.35;;;6.90;99.90;;;;;;5087877;28;20043;-71
2021/03/01 15:51:20;;;;;;;7.70;2.72;;;6.80;99.90;;;;;;5075664;28;20047;-70
2021/03/01 15:53:51;;;;;;;5.78;3.03;;;6.80;99.90;;;;;;5074021;28;20047;-70
2021/03/01 15:56:17;;;;;;;4.80;2.70;;;6.80;99.90;;;;;;5053249;28;20338;-69
2021/03/01 15:58:51;;;;;;;7.47;3.38;;;6.80;99.90;;;;;;5053149;28;20048;-72
2021/03/01 16:01:26;;;;;;;5.35;2.60;;;7.00;99.90;;;;;;5054266;28;20132;-70
2021/03/01 16:03:51;;;;;;;8.48;3.80;;;6.90;99.90;;;;;;5053455;28;20399;-71
2021/03/01 16:06:58;;;;;;;6.90;3.38;;;6.80;99.90;;;;;;5053053;28;20048;-69
2021/03/01 16:09:50;;;;;;;3.95;2.10;;;6.80;99.90;;;;;;5039545;28;20064;-69
2021/03/01 16:16:12;;;;;;;7.03;3.47;;;6.70;99.90;;;;;;5052909;28;20032;-68
2021/03/01 16:18:40;;;;;;;7.65;3.20;;;6.70;99.90;;;;;;5041922;28;20046;-70
2021/03/01 16:25:06;;;;;;;7.43;3.70;;;6.60;99.90;;;;;;5049555;28;20075;-75
2021/03/01 16:27:59;;;;;;;7.35;3.45;;;6.70;99.90;;;;;;5038933;28;20549;-70
2021/03/01 16:30:43;;;;;;;6.35;3.17;;;6.70;99.90;;;;;;5041474;28;20451;-70
2021/03/01 16:33:17;;;;;;;6.60;2.95;;;6.60;99.90;;;;;;5056998;28;20045;-71
2021/03/01 16:36:01;;;;;;;10.02;3.38;;;6.70;99.90;;;;;;5050396;28;20166;-72
2021/03/01 16:42:27;;;;;;;9.48;4.43;;;6.70;99.90;;;;;;5056743;28;20079;-70
2021/03/01 16:44:58;;;;;;;13.57;5.47;;;6.70;99.90;;;;;;5056041;28;20140;-70
2021/03/01 16:47:31;;;;;;;18.30;8.80;;;6.60;99.90;;;;;;5056934;28;20041;-71
2021/03/01 16:50:05;;;;;;;21.27;9.15;;;6.60;99.90;;;;;;5054121;28;20068;-69
2021/03/01 16:52:34;;;;;;;20.65;8.48;;;6.40;99.90;;;;;;5037472;28;20112;-69
2021/03/01 16:55:00;;;;;;;14.82;7.38;;;6.50;99.90;;;;;;5064839;28;20092;-70
2021/03/01 16:57:31;;;;;;;12.85;6.57;;;6.40;99.90;;;;;;5096720;28;20055;-70
2021/03/01 16:59:58;;;;;;;16.70;7.10;;;6.40;99.90;;;;;;5097458;28;20032;-70
2021/03/01 17:02:38;;;;;;;19.15;8.15;;;6.40;99.90;;;;;;5096854;28;20042;-69
2021/03/01 17:05:29;;;;;;;14.32;6.88;;;6.40;99.90;;;;;;5074204;28;20044;-69
2021/03/01 17:08:01;;;;;;;16.13;7.15;;;6.40;99.90;;;;;;5096671;28;20407;-69
2021/03/01 17:11:00;;;;;;;13.93;6.90;;;6.40;99.90;;;;;;5096421;28;20040;-69
2021/03/01 17:17:59;;;;;;;13.18;5.93;;;6.40;99.90;;;;;;5091172;28;20073;-69
2021/03/01 17:20:28;;;;;;;16.48;6.55;;;6.40;99.90;;;;;;5074265;28;20102;-69
2021/03/01 17:23:06;;;;;;;14.57;6.63;;;6.40;99.90;;;;;;5096264;28;20037;-69
2021/03/01 17:25:51;;;;;;;12.88;5.72;;;6.30;99.90;;;;;;5096209;28;20040;-68
2021/03/01 17:28:26;;;;;;;14.18;6.05;;;6.30;99.90;;;;;;5079734;28;20127;-68
2021/03/01 17:30:56;;;;;;;17.73;6.75;;;6.30;99.90;;;;;;5091180;28;20040;-69
2021/03/01 17:37:53;;;;;;;18.77;6.65;;;6.20;99.90;;;;;;5094987;28;20536;-69
2021/03/01 17:40:23;;;;;;;17.75;7.78;;;6.30;99.90;;;;;;5096187;28;20054;-68
2021/03/01 17:42:51;;;;;;;19.33;6.60;;;6.20;99.90;;;;;;5077956;28;20048;-69
2021/03/01 17:45:23;;;;;;;14.02;6.28;;;6.30;99.90;;;;;;5096090;28;20117;-69